Darya Jyoti — VRGM9 — position and weather

sailwx.info

Track history (hours):
 
Tides and Currents Weather Stations Pressure Air Temp Water Temp Dewpoint Dewpoint Depression Visibility Wind Speed Wind Dir Waves Ship Positions

Darya Jyoti

Last reported at 2016-Jan-20 08:19 UTC. Time now 2016-Feb-08 21:16 UTC.
Position N 01°55' E 102°19'.
Warning: this ship's position is 19 days out of date.

Length 229 m; draft 12.5 m.

Type: Cargo ship. MMSI: 477742700.

Date/timePositionNaut miles runAvg speedWind from/ knotsBaromVisibWave heightAir tempDewpointWater temp
2016-Jan-20 08:19N 01°55' E 102°19'912.4
2016-Jan-20 07:33N 01°52' E 102°28'1312.8
2016-Jan-20 06:33N 01°46' E 102°39'6612.9
2016-Jan-20 01:28N 01°12' E 103°35'1010.6
2016-Jan-20 00:33N 01°09' E 103°44'9 8.6
2016-Jan-19 23:33N 01°12' E 103°52'8 7.5
2016-Jan-19 22:34N 01°15' E 103°59'6 0.4
2016-Jan-19 06:31N 01°18' E 104°04'253 6.6
2016-Jan-17 16:17S 00°52' E 107°41'811.1
2016-Jan-17 15:33S 00°58' E 107°47'  
Track history (hours):
 
Tides and Currents Weather Stations Pressure Air Temp Water Temp Dewpoint Dewpoint Depression Visibility Wind Speed Wind Dir Waves Ship Positions

Darya Jyoti

Last reported at 2016-Jan-20 08:19 UTC. Time now 2016-Feb-08 21:16 UTC.
Position N 01°55' E 102°19'.
Warning: this ship's position is 19 days out of date.

Length 229 m; draft 12.5 m.

Type: Cargo ship. MMSI: 477742700.

Date/timePositionNaut miles runAvg speedWind from/ knotsBaromVisibWave heightAir tempDewpointWater temp
2016-Jan-20 08:19N 01°55' E 102°19'912.4
2016-Jan-20 07:33N 01°52' E 102°28'1312.8
2016-Jan-20 06:33N 01°46' E 102°39'6612.9
2016-Jan-20 01:28N 01°12' E 103°35'1010.6
2016-Jan-20 00:33N 01°09' E 103°44'9 8.6
2016-Jan-19 23:33N 01°12' E 103°52'8 7.5
2016-Jan-19 22:34N 01°15' E 103°59'6 0.4
2016-Jan-19 06:31N 01°18' E 104°04'253 6.6
2016-Jan-17 16:17S 00°52' E 107°41'811.1
2016-Jan-17 15:33S 00°58' E 107°47'  

Dump ship's entire track history